sensor_id;sensor_type;location;lat;lon;timestamp;P1;durP1;ratioP1;P2;durP2;ratioP2
22628;SDS011;11481;53.694;9.910;2023-05-07T00:00:59;12.15;;;5.95;;
22628;SDS011;11481;53.694;9.910;2023-05-07T00:03:26;13.55;;;6.80;;
22628;SDS011;11481;53.694;9.910;2023-05-07T00:05:53;12.50;;;6.13;;
22628;SDS011;11481;53.694;9.910;2023-05-07T00:08:20;12.25;;;6.25;;
22628;SDS011;11481;53.694;9.910;2023-05-07T00:10:46;14.40;;;6.97;;
22628;SDS011;11481;53.694;9.910;2023-05-07T00:13:13;14.02;;;6.25;;
22628;SDS011;11481;53.694;9.910;2023-05-07T00:15:41;13.98;;;6.60;;
22628;SDS011;11481;53.694;9.910;2023-05-07T00:18:07;11.73;;;6.38;;
22628;SDS011;11481;53.694;9.910;2023-05-07T00:20:34;11.48;;;6.07;;
22628;SDS011;11481;53.694;9.910;2023-05-07T00:23:01;14.25;;;6.85;;
22628;SDS011;11481;53.694;9.910;2023-05-07T00:25:28;15.23;;;6.38;;
22628;SDS011;11481;53.694;9.910;2023-05-07T00:27:55;15.38;;;6.18;;
22628;SDS011;11481;53.694;9.910;2023-05-07T00:30:21;11.60;;;6.38;;
22628;SDS011;11481;53.694;9.910;2023-05-07T00:32:48;12.27;;;6.03;;
22628;SDS011;11481;53.694;9.910;2023-05-07T00:35:16;13.18;;;6.13;;
22628;SDS011;11481;53.694;9.910;2023-05-07T00:37:43;14.15;;;6.43;;
22628;SDS011;11481;53.694;9.910;2023-05-07T00:40:10;16.35;;;6.93;;
22628;SDS011;11481;53.694;9.910;2023-05-07T00:42:37;14.85;;;6.78;;
22628;SDS011;11481;53.694;9.910;2023-05-07T00:45:04;15.13;;;6.78;;
22628;SDS011;11481;53.694;9.910;2023-05-07T00:47:31;14.43;;;6.45;;
22628;SDS011;11481;53.694;9.910;2023-05-07T00:49:58;14.70;;;6.20;;
22628;SDS011;11481;53.694;9.910;2023-05-07T00:52:25;12.60;;;6.20;;
22628;SDS011;11481;53.694;9.910;2023-05-07T00:54:52;11.93;;;6.10;;
22628;SDS011;11481;53.694;9.910;2023-05-07T00:57:19;13.05;;;6.22;;
22628;SDS011;11481;53.694;9.910;2023-05-07T00:59:48;11.73;;;5.72;;
22628;SDS011;11481;53.694;9.910;2023-05-07T01:02:15;13.68;;;6.35;;
22628;SDS011;11481;53.694;9.910;2023-05-07T01:04:43;16.42;;;6.32;;
22628;SDS011;11481;53.694;9.910;2023-05-07T01:07:10;10.05;;;5.57;;
22628;SDS011;11481;53.694;9.910;2023-05-07T01:09:36;13.90;;;6.53;;
22628;SDS011;11481;53.694;9.910;2023-05-07T01:12:03;11.45;;;5.53;;
22628;SDS011;11481;53.694;9.910;2023-05-07T01:14:31;15.40;;;6.68;;
22628;SDS011;11481;53.694;9.910;2023-05-07T01:16:59;13.02;;;5.72;;
22628;SDS011;11481;53.694;9.910;2023-05-07T01:19:26;12.80;;;5.95;;
22628;SDS011;11481;53.694;9.910;2023-05-07T01:21:54;12.20;;;5.57;;
22628;SDS011;11481;53.694;9.910;2023-05-07T01:24:28;14.38;;;6.38;;
22628;SDS011;11481;53.694;9.910;2023-05-07T01:26:56;13.30;;;5.95;;
22628;SDS011;11481;53.694;9.910;2023-05-07T01:29:23;13.52;;;6.15;;
22628;SDS011;11481;53.694;9.910;2023-05-07T01:31:49;14.98;;;6.38;;
22628;SDS011;11481;53.694;9.910;2023-05-07T01:34:17;10.25;;;5.05;;
22628;SDS011;11481;53.694;9.910;2023-05-07T01:36:47;14.73;;;6.78;;
22628;SDS011;11481;53.694;9.910;2023-05-07T01:39:14;13.93;;;6.55;;
22628;SDS011;11481;53.694;9.910;2023-05-07T01:41:42;13.77;;;6.45;;
22628;SDS011;11481;53.694;9.910;2023-05-07T01:44:09;17.63;;;7.07;;
22628;SDS011;11481;53.694;9.910;2023-05-07T01:46:39;13.30;;;6.05;;
22628;SDS011;11481;53.694;9.910;2023-05-07T01:49:06;12.65;;;6.00;;
22628;SDS011;11481;53.694;9.910;2023-05-07T01:51:33;13.50;;;5.72;;
22628;SDS011;11481;53.694;9.910;2023-05-07T01:54:00;11.15;;;5.57;;
22628;SDS011;11481;53.694;9.910;2023-05-07T01:56:27;13.43;;;6.40;;
22628;SDS011;11481;53.694;9.910;2023-05-07T01:58:53;9.27;;;5.25;;
22628;SDS011;11481;53.694;9.910;2023-05-07T02:01:20;9.82;;;4.80;;
22628;SDS011;11481;53.694;9.910;2023-05-07T02:03:47;15.13;;;6.13;;
22628;SDS011;11481;53.694;9.910;2023-05-07T02:06:14;10.73;;;5.03;;
22628;SDS011;11481;53.694;9.910;2023-05-07T02:08:40;12.85;;;5.53;;
22628;SDS011;11481;53.694;9.910;2023-05-07T02:11:07;12.15;;;5.95;;
22628;SDS011;11481;53.694;9.910;2023-05-07T02:13:34;11.93;;;5.70;;
22628;SDS011;11481;53.694;9.910;2023-05-07T02:16:01;10.80;;;5.15;;
22628;SDS011;11481;53.694;9.910;2023-05-07T02:18:28;11.07;;;4.90;;
22628;SDS011;11481;53.694;9.910;2023-05-07T02:20:55;12.65;;;5.80;;
22628;SDS011;11481;53.694;9.910;2023-05-07T02:23:22;12.02;;;5.43;;
22628;SDS011;11481;53.694;9.910;2023-05-07T02:25:48;11.80;;;5.97;;
22628;SDS011;11481;53.694;9.910;2023-05-07T02:28:15;12.85;;;5.53;;
22628;SDS011;11481;53.694;9.910;2023-05-07T02:30:41;12.38;;;5.55;;
22628;SDS011;11481;53.694;9.910;2023-05-07T02:33:08;11.02;;;5.32;;
22628;SDS011;11481;53.694;9.910;2023-05-07T02:35:35;13.60;;;5.07;;
22628;SDS011;11481;53.694;9.910;2023-05-07T02:38:01;10.50;;;4.95;;
22628;SDS011;11481;53.694;9.910;2023-05-07T02:40:28;12.75;;;5.47;;
22628;SDS011;11481;53.694;9.910;2023-05-07T02:42:55;11.18;;;5.32;;
22628;SDS011;11481;53.694;9.910;2023-05-07T02:45:22;10.00;;;4.93;;
22628;SDS011;11481;53.694;9.910;2023-05-07T02:47:48;11.13;;;5.28;;
22628;SDS011;11481;53.694;9.910;2023-05-07T02:50:15;11.02;;;5.53;;
22628;SDS011;11481;53.694;9.910;2023-05-07T02:52:42;10.65;;;5.22;;
22628;SDS011;11481;53.694;9.910;2023-05-07T02:55:08;12.70;;;5.95;;
22628;SDS011;11481;53.694;9.910;2023-05-07T02:57:35;12.07;;;5.38;;
22628;SDS011;11481;53.694;9.910;2023-05-07T03:00:15;8.52;;;4.80;;
22628;SDS011;11481;53.694;9.910;2023-05-07T03:02:44;11.60;;;5.40;;
22628;SDS011;11481;53.694;9.910;2023-05-07T03:05:11;12.13;;;5.93;;
22628;SDS011;11481;53.694;9.910;2023-05-07T03:07:38;10.25;;;5.68;;
22628;SDS011;11481;53.694;9.910;2023-05-07T03:10:05;9.50;;;4.85;;
22628;SDS011;11481;53.694;9.910;2023-05-07T03:12:32;11.45;;;5.93;;
22628;SDS011;11481;53.694;9.910;2023-05-07T03:14:58;11.48;;;5.28;;
22628;SDS011;11481;53.694;9.910;2023-05-07T03:17:25;11.45;;;5.32;;
22628;SDS011;11481;53.694;9.910;2023-05-07T03:19:52;14.32;;;6.05;;
22628;SDS011;11481;53.694;9.910;2023-05-07T03:22:18;11.50;;;6.38;;
22628;SDS011;11481;53.694;9.910;2023-05-07T03:24:45;10.10;;;5.38;;
22628;SDS011;11481;53.694;9.910;2023-05-07T03:27:12;11.15;;;5.90;;
22628;SDS011;11481;53.694;9.910;2023-05-07T03:29:38;12.77;;;6.28;;
22628;SDS011;11481;53.694;9.910;2023-05-07T03:32:05;12.48;;;5.40;;
22628;SDS011;11481;53.694;9.910;2023-05-07T03:34:32;12.93;;;6.00;;
22628;SDS011;11481;53.694;9.910;2023-05-07T03:36:59;11.13;;;5.78;;
22628;SDS011;11481;53.694;9.910;2023-05-07T03:39:26;12.48;;;6.05;;
22628;SDS011;11481;53.694;9.910;2023-05-07T03:41:52;14.23;;;6.65;;
22628;SDS011;11481;53.694;9.910;2023-05-07T03:44:19;16.17;;;6.85;;
22628;SDS011;11481;53.694;9.910;2023-05-07T03:46:46;10.70;;;5.53;;
22628;SDS011;11481;53.694;9.910;2023-05-07T03:49:12;13.98;;;6.45;;
22628;SDS011;11481;53.694;9.910;2023-05-07T03:51:39;12.77;;;5.60;;
22628;SDS011;11481;53.694;9.910;2023-05-07T03:54:06;10.23;;;5.38;;
22628;SDS011;11481;53.694;9.910;2023-05-07T03:56:32;14.27;;;6.25;;
22628;SDS011;11481;53.694;9.910;2023-05-07T03:58:59;11.00;;;5.68;;
22628;SDS011;11481;53.694;9.910;2023-05-07T04:01:26;11.43;;;6.18;;
22628;SDS011;11481;53.694;9.910;2023-05-07T04:03:53;11.93;;;5.70;;
22628;SDS011;11481;53.694;9.910;2023-05-07T04:06:20;11.80;;;5.60;;
22628;SDS011;11481;53.694;9.910;2023-05-07T04:08:47;12.60;;;5.47;;
22628;SDS011;11481;53.694;9.910;2023-05-07T04:11:13;13.25;;;6.18;;
22628;SDS011;11481;53.694;9.910;2023-05-07T04:13:40;12.25;;;5.90;;
22628;SDS011;11481;53.694;9.910;2023-05-07T04:16:07;11.30;;;5.97;;
22628;SDS011;11481;53.694;9.910;2023-05-07T04:18:34;14.18;;;5.85;;
22628;SDS011;11481;53.694;9.910;2023-05-07T04:21:01;13.18;;;6.50;;
22628;SDS011;11481;53.694;9.910;2023-05-07T04:23:27;12.52;;;5.57;;
22628;SDS011;11481;53.694;9.910;2023-05-07T04:25:54;12.65;;;6.15;;
22628;SDS011;11481;53.694;9.910;2023-05-07T04:28:21;13.00;;;6.22;;
22628;SDS011;11481;53.694;9.910;2023-05-07T04:30:48;10.82;;;5.75;;
22628;SDS011;11481;53.694;9.910;2023-05-07T04:33:14;11.68;;;5.88;;
22628;SDS011;11481;53.694;9.910;2023-05-07T04:35:43;11.65;;;5.93;;
22628;SDS011;11481;53.694;9.910;2023-05-07T04:38:09;10.63;;;5.15;;
22628;SDS011;11481;53.694;9.910;2023-05-07T04:40:37;12.68;;;5.85;;
22628;SDS011;11481;53.694;9.910;2023-05-07T04:43:03;13.35;;;5.80;;
22628;SDS011;11481;53.694;9.910;2023-05-07T04:45:30;11.07;;;5.60;;
22628;SDS011;11481;53.694;9.910;2023-05-07T04:47:57;11.48;;;5.68;;
22628;SDS011;11481;53.694;9.910;2023-05-07T04:50:23;12.02;;;5.80;;
22628;SDS011;11481;53.694;9.910;2023-05-07T04:52:51;11.88;;;6.25;;
22628;SDS011;11481;53.694;9.910;2023-05-07T04:55:17;12.18;;;5.95;;
22628;SDS011;11481;53.694;9.910;2023-05-07T04:57:44;10.18;;;5.55;;
22628;SDS011;11481;53.694;9.910;2023-05-07T05:00:11;11.13;;;5.88;;
22628;SDS011;11481;53.694;9.910;2023-05-07T05:02:40;11.88;;;5.60;;
22628;SDS011;11481;53.694;9.910;2023-05-07T05:05:07;10.75;;;5.35;;
22628;SDS011;11481;53.694;9.910;2023-05-07T05:07:34;12.68;;;6.07;;
22628;SDS011;11481;53.694;9.910;2023-05-07T05:10:01;10.45;;;4.63;;
22628;SDS011;11481;53.694;9.910;2023-05-07T05:12:29;12.43;;;4.63;;
22628;SDS011;11481;53.694;9.910;2023-05-07T05:14:56;10.52;;;4.78;;
22628;SDS011;11481;53.694;9.910;2023-05-07T05:17:23;10.35;;;5.38;;
22628;SDS011;11481;53.694;9.910;2023-05-07T05:19:49;10.80;;;5.13;;
22628;SDS011;11481;53.694;9.910;2023-05-07T05:22:18;10.25;;;4.45;;
22628;SDS011;11481;53.694;9.910;2023-05-07T05:24:44;8.48;;;4.45;;
22628;SDS011;11481;53.694;9.910;2023-05-07T05:27:11;11.00;;;4.47;;
22628;SDS011;11481;53.694;9.910;2023-05-07T05:29:37;13.23;;;5.22;;
22628;SDS011;11481;53.694;9.910;2023-05-07T05:32:04;9.23;;;4.75;;
22628;SDS011;11481;53.694;9.910;2023-05-07T05:34:31;11.25;;;4.82;;
22628;SDS011;11481;53.694;9.910;2023-05-07T05:36:59;11.90;;;4.70;;
22628;SDS011;11481;53.694;9.910;2023-05-07T05:39:25;9.10;;;4.93;;
22628;SDS011;11481;53.694;9.910;2023-05-07T05:41:52;11.65;;;4.82;;
22628;SDS011;11481;53.694;9.910;2023-05-07T05:44:19;9.98;;;4.53;;
22628;SDS011;11481;53.694;9.910;2023-05-07T05:46:45;8.45;;;4.53;;
22628;SDS011;11481;53.694;9.910;2023-05-07T05:49:12;10.52;;;4.85;;
22628;SDS011;11481;53.694;9.910;2023-05-07T05:51:39;10.18;;;5.00;;
22628;SDS011;11481;53.694;9.910;2023-05-07T05:54:05;14.15;;;5.75;;
22628;SDS011;11481;53.694;9.910;2023-05-07T05:56:32;15.02;;;5.53;;
22628;SDS011;11481;53.694;9.910;2023-05-07T05:58:59;11.35;;;5.70;;
22628;SDS011;11481;53.694;9.910;2023-05-07T06:01:25;10.13;;;4.93;;
22628;SDS011;11481;53.694;9.910;2023-05-07T06:03:52;9.80;;;4.90;;
22628;SDS011;11481;53.694;9.910;2023-05-07T06:06:19;12.13;;;5.38;;
22628;SDS011;11481;53.694;9.910;2023-05-07T06:08:46;11.00;;;5.22;;
22628;SDS011;11481;53.694;9.910;2023-05-07T06:11:12;10.32;;;4.90;;
22628;SDS011;11481;53.694;9.910;2023-05-07T06:13:39;10.32;;;4.97;;
22628;SDS011;11481;53.694;9.910;2023-05-07T06:16:06;11.77;;;4.70;;
22628;SDS011;11481;53.694;9.910;2023-05-07T06:18:33;8.73;;;4.40;;
22628;SDS011;11481;53.694;9.910;2023-05-07T06:21:02;9.52;;;4.85;;
22628;SDS011;11481;53.694;9.910;2023-05-07T06:23:28;13.65;;;5.18;;
22628;SDS011;11481;53.694;9.910;2023-05-07T06:25:55;12.10;;;4.93;;
22628;SDS011;11481;53.694;9.910;2023-05-07T06:28:21;10.60;;;4.82;;
22628;SDS011;11481;53.694;9.910;2023-05-07T06:30:48;10.45;;;5.40;;
22628;SDS011;11481;53.694;9.910;2023-05-07T06:33:16;13.07;;;5.70;;
22628;SDS011;11481;53.694;9.910;2023-05-07T06:35:42;8.60;;;4.72;;
22628;SDS011;11481;53.694;9.910;2023-05-07T06:38:09;10.55;;;4.93;;
22628;SDS011;11481;53.694;9.910;2023-05-07T06:40:36;10.45;;;4.68;;
22628;SDS011;11481;53.694;9.910;2023-05-07T06:43:05;8.13;;;4.60;;
22628;SDS011;11481;53.694;9.910;2023-05-07T06:45:31;8.40;;;4.45;;
22628;SDS011;11481;53.694;9.910;2023-05-07T06:47:58;8.57;;;4.50;;
22628;SDS011;11481;53.694;9.910;2023-05-07T06:50:25;9.95;;;5.20;;
22628;SDS011;11481;53.694;9.910;2023-05-07T06:52:54;8.07;;;4.53;;
22628;SDS011;11481;53.694;9.910;2023-05-07T06:55:21;10.52;;;4.40;;
22628;SDS011;11481;53.694;9.910;2023-05-07T06:57:48;8.60;;;4.47;;
22628;SDS011;11481;53.694;9.910;2023-05-07T07:00:14;10.25;;;4.85;;
22628;SDS011;11481;53.694;9.910;2023-05-07T07:02:41;8.48;;;4.47;;
22628;SDS011;11481;53.694;9.910;2023-05-07T07:05:08;8.43;;;4.68;;
22628;SDS011;11481;53.694;9.910;2023-05-07T07:07:36;8.30;;;4.40;;
22628;SDS011;11481;53.694;9.910;2023-05-07T07:10:03;11.13;;;4.78;;
22628;SDS011;11481;53.694;9.910;2023-05-07T07:12:30;10.88;;;4.50;;
22628;SDS011;11481;53.694;9.910;2023-05-07T07:14:57;10.65;;;4.97;;
22628;SDS011;11481;53.694;9.910;2023-05-07T07:17:23;9.93;;;4.60;;
22628;SDS011;11481;53.694;9.910;2023-05-07T07:19:50;8.27;;;4.43;;
22628;SDS011;11481;53.694;9.910;2023-05-07T07:22:17;7.97;;;3.83;;
22628;SDS011;11481;53.694;9.910;2023-05-07T07:24:43;10.45;;;4.75;;
22628;SDS011;11481;53.694;9.910;2023-05-07T07:27:10;8.02;;;4.10;;
22628;SDS011;11481;53.694;9.910;2023-05-07T07:29:37;9.25;;;4.38;;
22628;SDS011;11481;53.694;9.910;2023-05-07T07:32:04;9.38;;;4.78;;
22628;SDS011;11481;53.694;9.910;2023-05-07T07:34:31;10.07;;;3.88;;
22628;SDS011;11481;53.694;9.910;2023-05-07T07:36:57;9.75;;;4.60;;
22628;SDS011;11481;53.694;9.910;2023-05-07T07:39:24;7.90;;;4.22;;
22628;SDS011;11481;53.694;9.910;2023-05-07T07:41:51;10.80;;;4.40;;
22628;SDS011;11481;53.694;9.910;2023-05-07T07:44:17;8.77;;;4.30;;
22628;SDS011;11481;53.694;9.910;2023-05-07T07:46:44;8.38;;;3.90;;
22628;SDS011;11481;53.694;9.910;2023-05-07T07:49:10;8.93;;;4.45;;
22628;SDS011;11481;53.694;9.910;2023-05-07T07:51:39;10.40;;;4.78;;
22628;SDS011;11481;53.694;9.910;2023-05-07T07:54:06;7.60;;;4.05;;
22628;SDS011;11481;53.694;9.910;2023-05-07T07:56:32;8.98;;;3.90;;
22628;SDS011;11481;53.694;9.910;2023-05-07T07:59:02;7.38;;;3.97;;
22628;SDS011;11481;53.694;9.910;2023-05-07T08:01:29;8.75;;;4.40;;
22628;SDS011;11481;53.694;9.910;2023-05-07T08:03:56;9.13;;;3.83;;
22628;SDS011;11481;53.694;9.910;2023-05-07T08:06:25;7.68;;;4.13;;
22628;SDS011;11481;53.694;9.910;2023-05-07T08:08:52;7.72;;;3.90;;
22628;SDS011;11481;53.694;9.910;2023-05-07T08:11:18;8.55;;;3.95;;
22628;SDS011;11481;53.694;9.910;2023-05-07T08:13:46;8.18;;;3.78;;
22628;SDS011;11481;53.694;9.910;2023-05-07T08:16:13;6.65;;;4.07;;
22628;SDS011;11481;53.694;9.910;2023-05-07T08:18:41;7.43;;;3.63;;
22628;SDS011;11481;53.694;9.910;2023-05-07T08:21:07;9.65;;;4.35;;
22628;SDS011;11481;53.694;9.910;2023-05-07T08:23:34;9.15;;;4.60;;
22628;SDS011;11481;53.694;9.910;2023-05-07T08:26:01;7.00;;;3.55;;
22628;SDS011;11481;53.694;9.910;2023-05-07T08:28:27;6.65;;;3.83;;
22628;SDS011;11481;53.694;9.910;2023-05-07T08:30:54;8.27;;;4.15;;
22628;SDS011;11481;53.694;9.910;2023-05-07T08:33:22;7.15;;;4.00;;
22628;SDS011;11481;53.694;9.910;2023-05-07T08:35:49;9.38;;;4.45;;
22628;SDS011;11481;53.694;9.910;2023-05-07T08:38:18;7.45;;;4.25;;
22628;SDS011;11481;53.694;9.910;2023-05-07T08:40:44;8.73;;;4.57;;
22628;SDS011;11481;53.694;9.910;2023-05-07T08:43:13;7.45;;;3.83;;
22628;SDS011;11481;53.694;9.910;2023-05-07T08:45:41;7.22;;;3.72;;
22628;SDS011;11481;53.694;9.910;2023-05-07T08:48:09;8.50;;;4.68;;
22628;SDS011;11481;53.694;9.910;2023-05-07T08:50:40;7.00;;;4.20;;
22628;SDS011;11481;53.694;9.910;2023-05-07T08:53:07;6.38;;;3.72;;
22628;SDS011;11481;53.694;9.910;2023-05-07T08:55:34;9.57;;;4.07;;
22628;SDS011;11481;53.694;9.910;2023-05-07T08:58:00;8.68;;;3.97;;
22628;SDS011;11481;53.694;9.910;2023-05-07T09:00:27;5.85;;;3.50;;
22628;SDS011;11481;53.694;9.910;2023-05-07T09:02:54;7.30;;;4.07;;
22628;SDS011;11481;53.694;9.910;2023-05-07T09:05:21;7.00;;;3.85;;
22628;SDS011;11481;53.694;9.910;2023-05-07T09:07:48;6.20;;;3.60;;
22628;SDS011;11481;53.694;9.910;2023-05-07T09:10:19;9.38;;;3.88;;
22628;SDS011;11481;53.694;9.910;2023-05-07T09:12:48;8.63;;;3.72;;
22628;SDS011;11481;53.694;9.910;2023-05-07T09:15:14;9.73;;;4.50;;
22628;SDS011;11481;53.694;9.910;2023-05-07T09:17:42;6.03;;;3.78;;
22628;SDS011;11481;53.694;9.910;2023-05-07T09:20:09;8.73;;;4.55;;
22628;SDS011;11481;53.694;9.910;2023-05-07T09:22:37;7.93;;;4.05;;
22628;SDS011;11481;53.694;9.910;2023-05-07T09:25:05;9.48;;;4.35;;
22628;SDS011;11481;53.694;9.910;2023-05-07T09:27:33;7.47;;;4.50;;
22628;SDS011;11481;53.694;9.910;2023-05-07T09:30:02;7.63;;;4.05;;
22628;SDS011;11481;53.694;9.910;2023-05-07T09:32:36;7.40;;;4.00;;
22628;SDS011;11481;53.694;9.910;2023-05-07T09:35:06;6.10;;;3.90;;
22628;SDS011;11481;53.694;9.910;2023-05-07T09:37:40;5.55;;;3.72;;
22628;SDS011;11481;53.694;9.910;2023-05-07T09:40:07;6.35;;;3.70;;
22628;SDS011;11481;53.694;9.910;2023-05-07T09:42:48;6.45;;;3.60;;
22628;SDS011;11481;53.694;9.910;2023-05-07T09:45:24;5.60;;;3.42;;
22628;SDS011;11481;53.694;9.910;2023-05-07T09:47:53;5.40;;;3.40;;
22628;SDS011;11481;53.694;9.910;2023-05-07T09:50:32;9.23;;;3.88;;
22628;SDS011;11481;53.694;9.910;2023-05-07T09:53:03;8.40;;;3.35;;
22628;SDS011;11481;53.694;9.910;2023-05-07T09:55:30;6.65;;;3.85;;
22628;SDS011;11481;53.694;9.910;2023-05-07T09:57:57;6.85;;;3.42;;
22628;SDS011;11481;53.694;9.910;2023-05-07T10:00:24;6.10;;;3.50;;
22628;SDS011;11481;53.694;9.910;2023-05-07T10:02:52;5.72;;;3.42;;
22628;SDS011;11481;53.694;9.910;2023-05-07T10:05:23;6.47;;;3.50;;
22628;SDS011;11481;53.694;9.910;2023-05-07T10:07:51;6.60;;;3.25;;
22628;SDS011;11481;53.694;9.910;2023-05-07T10:10:19;5.20;;;3.10;;
22628;SDS011;11481;53.694;9.910;2023-05-07T10:12:46;5.50;;;3.30;;
22628;SDS011;11481;53.694;9.910;2023-05-07T10:15:13;5.55;;;3.20;;
22628;SDS011;11481;53.694;9.910;2023-05-07T10:17:41;7.40;;;3.25;;
22628;SDS011;11481;53.694;9.910;2023-05-07T10:20:08;6.43;;;3.50;;
22628;SDS011;11481;53.694;9.910;2023-05-07T10:22:40;6.05;;;3.35;;
22628;SDS011;11481;53.694;9.910;2023-05-07T10:25:14;6.30;;;3.25;;
22628;SDS011;11481;53.694;9.910;2023-05-07T10:27:44;5.65;;;3.38;;
22628;SDS011;11481;53.694;9.910;2023-05-07T10:33:04;5.78;;;3.20;;
22628;SDS011;11481;53.694;9.910;2023-05-07T10:35:38;5.70;;;3.80;;
22628;SDS011;11481;53.694;9.910;2023-05-07T10:38:08;5.68;;;3.42;;
22628;SDS011;11481;53.694;9.910;2023-05-07T10:40:35;6.38;;;3.25;;
22628;SDS011;11481;53.694;9.910;2023-05-07T10:43:03;6.60;;;3.13;;
22628;SDS011;11481;53.694;9.910;2023-05-07T10:45:35;8.18;;;3.70;;
22628;SDS011;11481;53.694;9.910;2023-05-07T10:48:08;6.75;;;3.40;;
22628;SDS011;11481;53.694;9.910;2023-05-07T10:51:17;6.00;;;3.35;;
22628;SDS011;11481;53.694;9.910;2023-05-07T10:53:46;6.60;;;3.15;;
22628;SDS011;11481;53.694;9.910;2023-05-07T10:58:45;6.25;;;3.15;;
22628;SDS011;11481;53.694;9.910;2023-05-07T11:01:14;4.53;;;2.50;;
22628;SDS011;11481;53.694;9.910;2023-05-07T11:06:41;7.00;;;3.17;;
22628;SDS011;11481;53.694;9.910;2023-05-07T11:09:53;5.53;;;2.90;;
22628;SDS011;11481;53.694;9.910;2023-05-07T11:12:45;4.68;;;2.95;;
22628;SDS011;11481;53.694;9.910;2023-05-07T11:15:05;5.25;;;3.05;;
22628;SDS011;11481;53.694;9.910;2023-05-07T11:17:34;5.28;;;2.72;;
22628;SDS011;11481;53.694;9.910;2023-05-07T11:20:17;6.28;;;3.47;;
22628;SDS011;11481;53.694;9.910;2023-05-07T11:22:44;6.10;;;2.97;;
22628;SDS011;11481;53.694;9.910;2023-05-07T11:25:11;6.35;;;3.00;;
22628;SDS011;11481;53.694;9.910;2023-05-07T11:27:45;5.10;;;2.75;;
22628;SDS011;11481;53.694;9.910;2023-05-07T11:30:16;5.00;;;2.88;;
22628;SDS011;11481;53.694;9.910;2023-05-07T11:32:46;6.35;;;3.00;;
22628;SDS011;11481;53.694;9.910;2023-05-07T11:35:14;4.35;;;2.80;;
22628;SDS011;11481;53.694;9.910;2023-05-07T11:37:42;5.78;;;3.10;;
22628;SDS011;11481;53.694;9.910;2023-05-07T11:40:09;5.88;;;3.28;;
22628;SDS011;11481;53.694;9.910;2023-05-07T11:42:38;6.95;;;2.88;;
22628;SDS011;11481;53.694;9.910;2023-05-07T11:45:06;4.68;;;2.80;;
22628;SDS011;11481;53.694;9.910;2023-05-07T11:47:33;4.63;;;2.80;;
22628;SDS011;11481;53.694;9.910;2023-05-07T11:50:04;4.90;;;2.45;;
22628;SDS011;11481;53.694;9.910;2023-05-07T11:52:33;4.60;;;2.58;;
22628;SDS011;11481;53.694;9.910;2023-05-07T11:55:01;5.68;;;2.80;;
22628;SDS011;11481;53.694;9.910;2023-05-07T11:57:29;4.10;;;2.15;;
22628;SDS011;11481;53.694;9.910;2023-05-07T11:59:56;4.00;;;2.53;;
22628;SDS011;11481;53.694;9.910;2023-05-07T12:02:24;6.00;;;2.90;;
22628;SDS011;11481;53.694;9.910;2023-05-07T12:04:52;3.90;;;2.20;;
22628;SDS011;11481;53.694;9.910;2023-05-07T12:07:20;4.30;;;2.50;;
22628;SDS011;11481;53.694;9.910;2023-05-07T12:09:47;5.75;;;2.55;;
22628;SDS011;11481;53.694;9.910;2023-05-07T12:12:15;7.30;;;2.42;;
22628;SDS011;11481;53.694;9.910;2023-05-07T12:14:43;4.60;;;2.42;;
22628;SDS011;11481;53.694;9.910;2023-05-07T12:17:11;6.30;;;2.88;;
22628;SDS011;11481;53.694;9.910;2023-05-07T12:19:40;3.85;;;2.35;;
22628;SDS011;11481;53.694;9.910;2023-05-07T12:22:08;3.88;;;2.30;;
22628;SDS011;11481;53.694;9.910;2023-05-07T12:24:45;4.38;;;2.10;;
22628;SDS011;11481;53.694;9.910;2023-05-07T12:27:13;4.25;;;2.25;;
22628;SDS011;11481;53.694;9.910;2023-05-07T12:29:47;3.42;;;1.98;;
22628;SDS011;11481;53.694;9.910;2023-05-07T12:32:16;4.80;;;1.92;;
22628;SDS011;11481;53.694;9.910;2023-05-07T12:34:44;3.45;;;2.22;;
22628;SDS011;11481;53.694;9.910;2023-05-07T12:37:12;4.07;;;2.40;;
22628;SDS011;11481;53.694;9.910;2023-05-07T12:39:48;4.35;;;2.65;;
22628;SDS011;11481;53.694;9.910;2023-05-07T12:42:15;3.00;;;2.00;;
22628;SDS011;11481;53.694;9.910;2023-05-07T12:44:45;3.88;;;2.13;;
22628;SDS011;11481;53.694;9.910;2023-05-07T12:47:14;4.50;;;2.00;;
22628;SDS011;11481;53.694;9.910;2023-05-07T12:49:41;3.00;;;1.80;;
22628;SDS011;11481;53.694;9.910;2023-05-07T12:52:08;2.97;;;2.10;;
22628;SDS011;11481;53.694;9.910;2023-05-07T12:54:37;3.78;;;2.03;;
22628;SDS011;11481;53.694;9.910;2023-05-07T12:57:05;5.32;;;1.65;;
22628;SDS011;11481;53.694;9.910;2023-05-07T12:59:37;3.58;;;2.00;;
22628;SDS011;11481;53.694;9.910;2023-05-07T13:02:06;2.92;;;1.83;;
22628;SDS011;11481;53.694;9.910;2023-05-07T13:04:34;2.83;;;1.90;;
22628;SDS011;11481;53.694;9.910;2023-05-07T13:07:01;3.33;;;1.98;;
22628;SDS011;11481;53.694;9.910;2023-05-07T13:09:30;3.42;;;1.85;;
22628;SDS011;11481;53.694;9.910;2023-05-07T13:11:59;3.53;;;1.90;;
22628;SDS011;11481;53.694;9.910;2023-05-07T13:14:27;3.25;;;1.67;;
22628;SDS011;11481;53.694;9.910;2023-05-07T13:16:54;2.58;;;1.67;;
22628;SDS011;11481;53.694;9.910;2023-05-07T13:19:20;3.67;;;1.80;;
22628;SDS011;11481;53.694;9.910;2023-05-07T13:21:47;3.25;;;1.63;;
22628;SDS011;11481;53.694;9.910;2023-05-07T13:24:17;3.17;;;1.67;;
22628;SDS011;11481;53.694;9.910;2023-05-07T13:26:44;3.13;;;1.83;;
22628;SDS011;11481;53.694;9.910;2023-05-07T13:29:11;3.50;;;2.10;;
22628;SDS011;11481;53.694;9.910;2023-05-07T13:31:38;2.30;;;1.58;;
22628;SDS011;11481;53.694;9.910;2023-05-07T13:34:12;3.15;;;1.70;;
22628;SDS011;11481;53.694;9.910;2023-05-07T13:36:39;5.13;;;1.80;;
22628;SDS011;11481;53.694;9.910;2023-05-07T13:39:07;2.83;;;1.30;;
22628;SDS011;11481;53.694;9.910;2023-05-07T13:41:35;2.35;;;1.52;;
22628;SDS011;11481;53.694;9.910;2023-05-07T13:44:04;2.67;;;1.52;;
22628;SDS011;11481;53.694;9.910;2023-05-07T13:46:31;2.65;;;1.55;;
22628;SDS011;11481;53.694;9.910;2023-05-07T13:48:58;2.42;;;1.58;;
22628;SDS011;11481;53.694;9.910;2023-05-07T13:51:27;4.78;;;1.90;;
22628;SDS011;11481;53.694;9.910;2023-05-07T13:53:53;3.38;;;1.73;;
22628;SDS011;11481;53.694;9.910;2023-05-07T13:56:20;3.15;;;1.92;;
22628;SDS011;11481;53.694;9.910;2023-05-07T13:58:47;3.70;;;1.95;;
22628;SDS011;11481;53.694;9.910;2023-05-07T14:01:25;2.60;;;1.58;;
22628;SDS011;11481;53.694;9.910;2023-05-07T14:03:52;2.72;;;1.70;;
22628;SDS011;11481;53.694;9.910;2023-05-07T14:06:19;4.05;;;1.60;;
22628;SDS011;11481;53.694;9.910;2023-05-07T14:08:46;2.67;;;1.70;;
22628;SDS011;11481;53.694;9.910;2023-05-07T14:11:12;4.63;;;1.83;;
22628;SDS011;11481;53.694;9.910;2023-05-07T14:13:39;2.75;;;1.52;;
22628;SDS011;11481;53.694;9.910;2023-05-07T14:16:07;2.78;;;1.40;;
22628;SDS011;11481;53.694;9.910;2023-05-07T14:18:33;2.58;;;1.50;;
22628;SDS011;11481;53.694;9.910;2023-05-07T14:21:03;2.88;;;1.63;;
22628;SDS011;11481;53.694;9.910;2023-05-07T14:23:32;5.55;;;1.70;;
22628;SDS011;11481;53.694;9.910;2023-05-07T14:25:58;3.22;;;1.55;;
22628;SDS011;11481;53.694;9.910;2023-05-07T14:28:25;2.60;;;1.40;;
22628;SDS011;11481;53.694;9.910;2023-05-07T14:30:52;2.30;;;1.33;;
22628;SDS011;11481;53.694;9.910;2023-05-07T14:33:18;2.13;;;1.50;;
22628;SDS011;11481;53.694;9.910;2023-05-07T14:35:45;3.70;;;1.50;;
22628;SDS011;11481;53.694;9.910;2023-05-07T14:38:14;2.08;;;1.55;;
22628;SDS011;11481;53.694;9.910;2023-05-07T14:40:41;2.03;;;1.35;;
22628;SDS011;11481;53.694;9.910;2023-05-07T14:43:08;4.05;;;1.60;;
22628;SDS011;11481;53.694;9.910;2023-05-07T14:45:35;2.50;;;1.30;;
22628;SDS011;11481;53.694;9.910;2023-05-07T14:48:01;2.72;;;1.50;;
22628;SDS011;11481;53.694;9.910;2023-05-07T14:50:28;2.85;;;1.48;;
22628;SDS011;11481;53.694;9.910;2023-05-07T14:53:01;2.88;;;1.45;;